createdAt,value
2023-05-25T17:27:18.291Z,5.90
2023-05-25T17:36:23.224Z,6.70
2023-05-25T17:38:51.902Z,6.30
2023-05-25T17:41:23.685Z,7.40
2023-05-25T17:43:52.341Z,6.10
2023-05-25T17:46:20.400Z,5.30
2023-05-25T17:48:50.116Z,6.80
2023-05-25T17:51:20.353Z,8.70
2023-05-25T17:53:47.911Z,9.40
2023-05-25T17:56:14.963Z,9.70
2023-05-25T17:58:47.432Z,10.40
2023-05-25T18:01:18.761Z,9.60
2023-05-25T18:03:53.594Z,9.50
2023-05-25T18:06:29.190Z,9.60
2023-05-25T18:08:59.484Z,7.90
2023-05-25T18:11:30.572Z,12.80
2023-05-25T18:13:57.870Z,6.90
2023-05-25T18:16:30.414Z,6.00
2023-05-25T18:18:58.937Z,5.80
2023-05-25T18:21:28.130Z,7.30
2023-05-25T18:23:55.366Z,7.50
2023-05-25T18:26:23.345Z,6.10
2023-05-25T18:28:51.028Z,9.30
2023-05-25T18:31:24.475Z,9.90
2023-05-25T18:33:55.414Z,11.10
2023-05-25T18:36:25.192Z,12.00
2023-05-25T18:38:56.766Z,13.60
2023-05-25T18:41:26.545Z,15.30
2023-05-25T18:43:57.795Z,11.30
2023-05-25T18:46:28.436Z,10.60
2023-05-25T18:48:55.694Z,9.10
2023-05-25T18:51:29.684Z,8.20
2023-05-25T18:53:58.636Z,9.40
2023-05-25T18:56:27.060Z,8.30
2023-05-25T18:58:56.761Z,7.50
2023-05-25T19:01:25.372Z,6.20
2023-05-25T19:03:58.298Z,6.10
2023-05-25T19:06:28.397Z,7.40
2023-05-25T19:08:59.915Z,5.40
2023-05-25T19:11:36.773Z,5.00
